Terminal Aerodrome Forecast
Issued by NWS Wichita, KS

Home | Current Version | Previous Version | Graphics & Text | Print | Product List | Glossary On
Versions: 1 2 3 4 5 6 7 8 9 10 11 12 13 14 15 16 17 18 19 20 21 22 23 24
019
FTUS43 KICT 170902 AAB
TAFICT
TAF AMD
KICT 170902Z 1709/1806 01010KT P6SM VCSH BKN008
     FM171600 04007KT P6SM BKN030
     FM180200 06008KT P6SM VCTS BKN035CB=

USA.gov is the U.S. government's official web portal to all federal, state and local government web resources and services.